Time;durP1;ratioP1;P1;durP2;ratioP2;P2;SDS_P1;SDS_P2;PMS_P1;PMS_P2;Temp;Humidity;BMP_temperature;BMP_pressure;BME280_temperature;BME280_humidity;BME280_pressure;Samples;Min_cycle;Max_cycle;Signal;HPM_P1;HPM_P2
2023/09/28 00:01:22;;;;;;;11.00;8.25;;;;;;;;;;5076635;28;20440;-76
2023/09/28 00:03:48;;;;;;;11.20;8.38;;;;;;;;;;5077614;28;20093;-76
2023/09/28 00:06:13;;;;;;;11.77;8.15;;;;;;;;;;5081278;28;20030;-76
2023/09/28 00:08:39;;;;;;;14.90;9.35;;;;;;;;;;5100126;28;20114;-75
2023/09/28 00:11:04;;;;;;;13.10;9.75;;;;;;;;;;5095307;28;20411;-76
2023/09/28 00:13:29;;;;;;;13.60;9.65;;;;;;;;;;5093867;28;20024;-76
2023/09/28 00:15:54;;;;;;;13.55;9.18;;;;;;;;;;5094495;28;20036;-76
2023/09/28 00:18:20;;;;;;;14.50;8.88;;;;;;;;;;5097680;28;20085;-76
2023/09/28 00:20:45;;;;;;;15.20;8.30;;;;;;;;;;5097724;28;20040;-76
2023/09/28 00:23:11;;;;;;;19.17;9.23;;;;;;;;;;5099420;28;20045;-75
2023/09/28 00:25:36;;;;;;;16.33;8.75;;;;;;;;;;5084650;28;20292;-75
2023/09/28 00:28:01;;;;;;;10.63;8.20;;;;;;;;;;5099754;28;20028;-76
2023/09/28 00:30:27;;;;;;;9.73;7.95;;;;;;;;;;5097942;28;20278;-77
2023/09/28 00:32:53;;;;;;;10.75;8.70;;;;;;;;;;5096352;28;20032;-77
2023/09/28 00:35:18;;;;;;;12.57;8.98;;;;;;;;;;5103960;28;20056;-76
2023/09/28 00:37:44;;;;;;;14.15;9.18;;;;;;;;;;5099679;28;20066;-76
2023/09/28 00:40:19;;;;;;;14.20;8.93;;;;;;;;;;5077348;28;20034;-75
2023/09/28 00:42:46;;;;;;;12.63;8.80;;;;;;;;;;5098781;28;20383;-76
2023/09/28 00:45:11;;;;;;;12.73;8.35;;;;;;;;;;5081212;28;20053;-76
2023/09/28 00:47:39;;;;;;;8.93;7.45;;;;;;;;;;5084031;28;20024;-76
2023/09/28 00:50:14;;;;;;;12.45;8.32;;;;;;;;;;5084333;28;20388;-76
2023/09/28 00:52:43;;;;;;;10.95;8.50;;;;;;;;;;5096188;28;20024;-76
2023/09/28 00:55:10;;;;;;;11.30;8.27;;;;;;;;;;5096344;28;20467;-76
2023/09/28 00:57:37;;;;;;;12.18;8.35;;;;;;;;;;5099353;28;20643;-76
2023/09/28 01:00:08;;;;;;;10.25;7.65;;;;;;;;;;5076597;28;20066;-75
2023/09/28 01:02:34;;;;;;;8.73;6.90;;;;;;;;;;5081410;28;20020;-76
2023/09/28 01:04:59;;;;;;;12.57;7.63;;;;;;;;;;5101823;28;20023;-77
2023/09/28 01:07:25;;;;;;;15.90;8.98;;;;;;;;;;5095476;28;20642;-76
2023/09/28 01:09:50;;;;;;;10.88;8.68;;;;;;;;;;5096891;28;20107;-76
2023/09/28 01:12:16;;;;;;;11.73;7.32;;;;;;;;;;5098648;28;20463;-76
2023/09/28 01:14:41;;;;;;;8.75;7.63;;;;;;;;;;5100587;28;20038;-76
2023/09/28 01:17:09;;;;;;;13.77;7.50;;;;;;;;;;5083384;28;20016;-76
2023/09/28 01:19:34;;;;;;;14.27;7.22;;;;;;;;;;5082030;28;20514;-75
2023/09/28 01:21:59;;;;;;;11.20;8.32;;;;;;;;;;5063110;28;20050;-75
2023/09/28 01:24:27;;;;;;;15.23;7.18;;;;;;;;;;5099283;28;20028;-75
2023/09/28 01:26:52;;;;;;;11.48;7.80;;;;;;;;;;5097785;28;20035;-76
2023/09/28 01:29:17;;;;;;;12.15;7.28;;;;;;;;;;5085656;28;20875;-76
2023/09/28 01:31:42;;;;;;;9.10;7.35;;;;;;;;;;5101955;28;20055;-76
2023/09/28 01:34:07;;;;;;;10.80;6.68;;;;;;;;;;5077060;28;20032;-76
2023/09/28 01:36:32;;;;;;;12.87;8.17;;;;;;;;;;5066770;28;20024;-76
2023/09/28 01:39:00;;;;;;;13.03;8.57;;;;;;;;;;5061734;28;20278;-75
2023/09/28 01:41:25;;;;;;;8.35;6.55;;;;;;;;;;5096173;28;20261;-76
2023/09/28 01:43:50;;;;;;;10.23;7.38;;;;;;;;;;5079115;28;20016;-76
2023/09/28 01:46:15;;;;;;;12.43;8.03;;;;;;;;;;5103220;28;20449;-76
2023/09/28 01:48:41;;;;;;;10.30;7.03;;;;;;;;;;5095407;28;20278;-76
2023/09/28 01:51:06;;;;;;;12.40;7.20;;;;;;;;;;5084998;28;20031;-75
2023/09/28 01:53:32;;;;;;;9.88;6.72;;;;;;;;;;5069254;28;20290;-76
2023/09/28 01:55:59;;;;;;;11.05;7.18;;;;;;;;;;5098155;28;20055;-76
2023/09/28 01:58:24;;;;;;;12.32;8.00;;;;;;;;;;5105059;28;20503;-75
2023/09/28 02:00:50;;;;;;;11.48;8.35;;;;;;;;;;5082624;28;20016;-76
2023/09/28 02:03:16;;;;;;;13.65;8.05;;;;;;;;;;5093771;28;20040;-76
2023/09/28 02:05:42;;;;;;;9.38;7.53;;;;;;;;;;5098864;28;20073;-75
2023/09/28 02:08:07;;;;;;;10.65;7.47;;;;;;;;;;5096870;28;20031;-76
2023/09/28 02:10:33;;;;;;;11.73;8.48;;;;;;;;;;5097965;28;20161;-76
2023/09/28 02:12:59;;;;;;;11.93;7.28;;;;;;;;;;5079451;28;20028;-76
2023/09/28 02:15:24;;;;;;;9.90;7.95;;;;;;;;;;5082424;28;20031;-76
2023/09/28 02:17:50;;;;;;;13.75;8.75;;;;;;;;;;5094715;28;20539;-76
2023/09/28 02:20:16;;;;;;;13.73;8.45;;;;;;;;;;5077307;28;20036;-76
2023/09/28 02:22:44;;;;;;;11.55;7.68;;;;;;;;;;5073466;28;20028;-76
2023/09/28 02:25:19;;;;;;;9.45;7.47;;;;;;;;;;5099088;28;20495;-76
2023/09/28 02:27:45;;;;;;;13.73;7.95;;;;;;;;;;5097048;28;20028;-75
2023/09/28 02:30:15;;;;;;;14.45;8.20;;;;;;;;;;5098420;28;20074;-75
2023/09/28 02:32:43;;;;;;;10.27;7.63;;;;;;;;;;5070957;28;20035;-75
2023/09/28 02:35:13;;;;;;;15.27;7.15;;;;;;;;;;5094691;28;20095;-76
2023/09/28 02:37:39;;;;;;;10.57;6.50;;;;;;;;;;5093483;28;20069;-76
2023/09/28 02:40:05;;;;;;;11.40;7.68;;;;;;;;;;5080813;28;20442;-76
2023/09/28 02:42:31;;;;;;;9.10;6.78;;;;;;;;;;5083710;28;20050;-76
2023/09/28 02:44:57;;;;;;;13.90;7.25;;;;;;;;;;5072281;28;20484;-76
2023/09/28 02:47:22;;;;;;;12.75;7.18;;;;;;;;;;5097384;28;20546;-76
2023/09/28 02:49:48;;;;;;;11.65;7.72;;;;;;;;;;5096775;28;20035;-76
2023/09/28 02:52:13;;;;;;;8.93;6.63;;;;;;;;;;5098067;28;20028;-75
2023/09/28 02:54:38;;;;;;;11.32;7.53;;;;;;;;;;5099621;28;20032;-76
2023/09/28 02:57:04;;;;;;;10.43;7.90;;;;;;;;;;5077993;28;20020;-76
2023/09/28 02:59:29;;;;;;;10.13;6.80;;;;;;;;;;5098654;28;20016;-75
2023/09/28 03:01:54;;;;;;;13.33;10.60;;;;;;;;;;5079884;28;20073;-76
2023/09/28 03:04:19;;;;;;;13.17;8.53;;;;;;;;;;5079923;28;20262;-76
2023/09/28 03:06:46;;;;;;;11.10;9.20;;;;;;;;;;5098865;28;20753;-76
2023/09/28 03:09:12;;;;;;;13.50;10.18;;;;;;;;;;5082125;28;20275;-76
2023/09/28 03:11:39;;;;;;;12.43;10.15;;;;;;;;;;5094561;28;20032;-76
2023/09/28 03:14:05;;;;;;;11.70;8.70;;;;;;;;;;5092514;28;20077;-76
2023/09/28 03:16:30;;;;;;;15.27;10.13;;;;;;;;;;5094513;28;20063;-76
2023/09/28 03:18:57;;;;;;;12.85;9.30;;;;;;;;;;5072515;28;20089;-76
2023/09/28 03:21:24;;;;;;;13.75;9.65;;;;;;;;;;5098720;28;20106;-76
2023/09/28 03:23:49;;;;;;;15.05;10.90;;;;;;;;;;5098945;28;20028;-76
2023/09/28 03:26:15;;;;;;;16.80;12.52;;;;;;;;;;5075054;28;20053;-76
2023/09/28 03:28:40;;;;;;;12.55;10.32;;;;;;;;;;5097112;28;20044;-76
2023/09/28 03:31:05;;;;;;;10.40;9.10;;;;;;;;;;5094841;28;20111;-76
2023/09/28 03:33:31;;;;;;;12.38;9.45;;;;;;;;;;5098302;28;20334;-76
2023/09/28 03:35:56;;;;;;;10.63;8.90;;;;;;;;;;5092150;28;20491;-75
2023/09/28 03:38:21;;;;;;;14.38;9.05;;;;;;;;;;5077934;28;20028;-76
2023/09/28 03:40:47;;;;;;;10.87;8.07;;;;;;;;;;5092726;28;20027;-76
2023/09/28 03:43:12;;;;;;;11.27;7.82;;;;;;;;;;5096273;28;20281;-76
2023/09/28 03:45:37;;;;;;;13.73;8.57;;;;;;;;;;5097285;28;20035;-75
2023/09/28 03:48:03;;;;;;;11.45;6.85;;;;;;;;;;5093320;28;20594;-75
2023/09/28 03:50:28;;;;;;;16.00;8.68;;;;;;;;;;5097986;28;20039;-76
2023/09/28 03:52:53;;;;;;;13.82;7.90;;;;;;;;;;5094686;28;20102;-76
2023/09/28 03:55:20;;;;;;;10.68;8.00;;;;;;;;;;5093253;28;20032;-77
2023/09/28 03:57:45;;;;;;;12.30;8.18;;;;;;;;;;5099984;28;20028;-76
2023/09/28 04:00:14;;;;;;;12.70;8.43;;;;;;;;;;5101374;28;20035;-77
2023/09/28 04:02:44;;;;;;;14.25;7.45;;;;;;;;;;5098937;28;20043;-77
2023/09/28 04:05:09;;;;;;;10.52;7.50;;;;;;;;;;5100167;28;20028;-76
2023/09/28 04:07:34;;;;;;;11.45;8.18;;;;;;;;;;5098678;28;20490;-77
2023/09/28 04:09:59;;;;;;;13.63;9.10;;;;;;;;;;5097483;28;20074;-77
2023/09/28 04:12:25;;;;;;;15.30;9.07;;;;;;;;;;5099777;28;20024;-76
2023/09/28 04:14:50;;;;;;;12.80;8.15;;;;;;;;;;5082140;28;20351;-76
2023/09/28 04:17:16;;;;;;;10.35;7.70;;;;;;;;;;5103138;28;20031;-77
2023/09/28 04:19:41;;;;;;;11.32;7.75;;;;;;;;;;5095213;28;20034;-76
2023/09/28 04:22:06;;;;;;;11.27;8.70;;;;;;;;;;5077738;28;20051;-76
2023/09/28 04:24:32;;;;;;;9.32;6.53;;;;;;;;;;5099008;28;20032;-75
2023/09/28 04:26:58;;;;;;;10.23;8.43;;;;;;;;;;5093661;28;20082;-76
2023/09/28 04:29:26;;;;;;;11.75;7.90;;;;;;;;;;5101453;28;20108;-76
2023/09/28 04:31:51;;;;;;;9.57;7.50;;;;;;;;;;5088993;28;20067;-76
2023/09/28 04:34:17;;;;;;;12.15;8.80;;;;;;;;;;5095536;28;20067;-75
2023/09/28 04:36:44;;;;;;;13.02;8.25;;;;;;;;;;5089435;28;20059;-76
2023/09/28 04:39:10;;;;;;;10.43;7.88;;;;;;;;;;5092481;28;20028;-76
2023/09/28 04:41:36;;;;;;;11.52;8.13;;;;;;;;;;5093475;28;20059;-76
2023/09/28 04:44:01;;;;;;;12.57;8.02;;;;;;;;;;5099583;28;20051;-76
2023/09/28 04:46:27;;;;;;;10.70;7.10;;;;;;;;;;5084264;28;20473;-76
2023/09/28 04:48:53;;;;;;;12.30;7.78;;;;;;;;;;5098460;28;20123;-76
2023/09/28 04:51:19;;;;;;;11.25;7.78;;;;;;;;;;5102921;28;20556;-76
2023/09/28 04:53:44;;;;;;;12.15;7.82;;;;;;;;;;5100053;28;20035;-76
2023/09/28 04:56:11;;;;;;;10.45;7.55;;;;;;;;;;5095644;28;20028;-76
2023/09/28 04:58:36;;;;;;;11.60;7.82;;;;;;;;;;5090554;28;20028;-76
2023/09/28 05:01:01;;;;;;;11.48;8.00;;;;;;;;;;5076584;28;20020;-76
2023/09/28 05:03:27;;;;;;;14.95;6.93;;;;;;;;;;5101989;28;20034;-77
2023/09/28 05:05:52;;;;;;;9.73;7.15;;;;;;;;;;5096792;28;20024;-76
2023/09/28 05:08:17;;;;;;;13.70;8.57;;;;;;;;;;5079380;28;20116;-76
2023/09/28 05:10:42;;;;;;;10.67;8.30;;;;;;;;;;5100318;28;20036;-76
2023/09/28 05:13:07;;;;;;;12.50;7.93;;;;;;;;;;5097639;28;20781;-76
2023/09/28 05:15:33;;;;;;;12.87;7.87;;;;;;;;;;5101728;28;20353;-76
2023/09/28 05:17:58;;;;;;;11.07;8.38;;;;;;;;;;5077475;28;20277;-76
2023/09/28 05:20:23;;;;;;;9.70;7.10;;;;;;;;;;5097245;28;20020;-76
2023/09/28 05:22:48;;;;;;;10.52;7.85;;;;;;;;;;5099982;28;21033;-77
2023/09/28 05:25:14;;;;;;;10.17;7.43;;;;;;;;;;5104292;28;20020;-76
2023/09/28 05:27:39;;;;;;;14.77;8.45;;;;;;;;;;5100308;28;20334;-75
2023/09/28 05:30:05;;;;;;;9.60;7.38;;;;;;;;;;5100532;28;20521;-77
2023/09/28 05:32:30;;;;;;;11.38;7.63;;;;;;;;;;5096158;28;20052;-76
2023/09/28 05:34:56;;;;;;;11.90;8.13;;;;;;;;;;5078450;28;20408;-76
2023/09/28 05:37:21;;;;;;;10.83;7.60;;;;;;;;;;5098524;28;20266;-76
2023/09/28 05:39:47;;;;;;;10.40;7.43;;;;;;;;;;5101256;28;20774;-76
2023/09/28 05:42:12;;;;;;;10.57;8.00;;;;;;;;;;5101707;28;20399;-76
2023/09/28 05:44:37;;;;;;;11.43;8.02;;;;;;;;;;5096517;28;20040;-76
2023/09/28 05:47:03;;;;;;;9.57;7.43;;;;;;;;;;5095368;28;20107;-76
2023/09/28 05:49:29;;;;;;;10.23;7.80;;;;;;;;;;5095978;28;20408;-77
2023/09/28 05:51:54;;;;;;;13.48;7.85;;;;;;;;;;5097097;28;20035;-77
2023/09/28 05:54:20;;;;;;;13.18;7.55;;;;;;;;;;5101877;28;20028;-76
2023/09/28 05:56:45;;;;;;;11.45;7.18;;;;;;;;;;5084763;28;20110;-76
2023/09/28 05:59:10;;;;;;;14.68;7.80;;;;;;;;;;5097675;28;20024;-76
2023/09/28 06:01:36;;;;;;;11.27;8.43;;;;;;;;;;5081744;28;20031;-76
2023/09/28 06:04:02;;;;;;;14.18;8.00;;;;;;;;;;5096901;28;20035;-77
2023/09/28 06:06:27;;;;;;;15.57;10.20;;;;;;;;;;5103312;28;20034;-76
2023/09/28 06:08:52;;;;;;;15.07;10.50;;;;;;;;;;5099620;28;20043;-76
2023/09/28 06:11:18;;;;;;;15.17;9.10;;;;;;;;;;5103323;28;20439;-76
2023/09/28 06:13:44;;;;;;;9.80;8.43;;;;;;;;;;5095408;28;20294;-77
2023/09/28 06:16:10;;;;;;;12.25;7.65;;;;;;;;;;5095905;28;20020;-76
2023/09/28 06:18:36;;;;;;;10.88;8.35;;;;;;;;;;5101227;28;20035;-76
2023/09/28 06:21:01;;;;;;;9.73;7.27;;;;;;;;;;5095784;28;20036;-77
2023/09/28 06:23:26;;;;;;;10.73;7.82;;;;;;;;;;5100301;28;20281;-77
2023/09/28 06:25:52;;;;;;;9.27;8.03;;;;;;;;;;5095474;28;20055;-76
2023/09/28 06:28:17;;;;;;;9.70;7.93;;;;;;;;;;5099126;28;20271;-77
2023/09/28 06:30:42;;;;;;;12.60;7.33;;;;;;;;;;5096378;28;20475;-76
2023/09/28 06:33:07;;;;;;;15.00;8.40;;;;;;;;;;5095930;28;20293;-76
2023/09/28 06:35:32;;;;;;;12.40;7.37;;;;;;;;;;5094009;28;20121;-77
2023/09/28 06:38:00;;;;;;;22.20;10.07;;;;;;;;;;5081342;28;20262;-76
2023/09/28 06:40:25;;;;;;;14.63;10.88;;;;;;;;;;5097427;28;20281;-76
2023/09/28 06:42:51;;;;;;;12.77;9.77;;;;;;;;;;5093436;28;20028;-76
2023/09/28 06:45:16;;;;;;;17.50;9.10;;;;;;;;;;5096128;28;20016;-77
2023/09/28 06:47:41;;;;;;;12.25;8.50;;;;;;;;;;5096846;28;20807;-77
2023/09/28 06:50:07;;;;;;;12.57;8.43;;;;;;;;;;5096467;28;20020;-76
2023/09/28 06:52:32;;;;;;;15.68;8.57;;;;;;;;;;5075444;28;20458;-76
2023/09/28 06:54:58;;;;;;;17.20;11.20;;;;;;;;;;5093750;28;20035;-76
2023/09/28 06:57:23;;;;;;;11.45;8.70;;;;;;;;;;5094512;28;20028;-76
2023/09/28 06:59:48;;;;;;;13.43;8.13;;;;;;;;;;5099234;28;20069;-76
2023/09/28 07:02:14;;;;;;;10.95;8.07;;;;;;;;;;5076391;28;20032;-77
2023/09/28 07:04:39;;;;;;;11.50;8.00;;;;;;;;;;5101779;28;20062;-76
2023/09/28 07:07:05;;;;;;;10.18;7.45;;;;;;;;;;5100776;28;20073;-77
2023/09/28 07:09:30;;;;;;;13.05;8.15;;;;;;;;;;5076029;28;20036;-77
2023/09/28 07:11:55;;;;;;;12.43;9.43;;;;;;;;;;5077040;28;20039;-77
2023/09/28 07:14:21;;;;;;;12.68;8.52;;;;;;;;;;5098399;28;20032;-77
2023/09/28 07:16:47;;;;;;;11.35;7.45;;;;;;;;;;5097645;28;20038;-77
2023/09/28 07:19:12;;;;;;;11.40;7.70;;;;;;;;;;5080913;28;20032;-77
2023/09/28 07:21:37;;;;;;;11.45;7.43;;;;;;;;;;5095263;28;20121;-77
2023/09/28 07:24:02;;;;;;;13.15;7.70;;;;;;;;;;5093462;28;20024;-76
2023/09/28 07:26:28;;;;;;;13.07;8.38;;;;;;;;;;5094982;28;20064;-77
2023/09/28 07:28:54;;;;;;;12.73;8.70;;;;;;;;;;5102403;28;20035;-77
2023/09/28 07:31:20;;;;;;;13.20;7.15;;;;;;;;;;5098553;28;20059;-76
2023/09/28 07:33:45;;;;;;;11.32;6.90;;;;;;;;;;5082999;28;20028;-76
2023/09/28 07:36:11;;;;;;;12.38;8.20;;;;;;;;;;5093047;28;20438;-76
2023/09/28 07:38:36;;;;;;;8.70;6.60;;;;;;;;;;5096060;28;20036;-76
2023/09/28 07:41:02;;;;;;;13.03;7.67;;;;;;;;;;5095039;28;20027;-77
2023/09/28 07:43:27;;;;;;;10.30;5.75;;;;;;;;;;5081618;28;20764;-76
2023/09/28 07:45:52;;;;;;;14.70;7.30;;;;;;;;;;5080773;28;20122;-77
2023/09/28 07:48:18;;;;;;;17.03;8.00;;;;;;;;;;5099102;28;20033;-76
2023/09/28 07:50:43;;;;;;;10.37;6.40;;;;;;;;;;5093385;28;20331;-77
2023/09/28 07:53:08;;;;;;;13.30;6.63;;;;;;;;;;5090591;28;20820;-76
2023/09/28 07:55:34;;;;;;;9.73;5.70;;;;;;;;;;5097067;28;20266;-76
2023/09/28 07:57:59;;;;;;;11.70;5.95;;;;;;;;;;5098043;28;20115;-76
2023/09/28 08:00:24;;;;;;;11.70;5.40;;;;;;;;;;5098910;28;20027;-76
2023/09/28 08:02:50;;;;;;;11.82;7.15;;;;;;;;;;5097117;28;20031;-77
2023/09/28 08:05:15;;;;;;;13.20;6.82;;;;;;;;;;5080052;28;20032;-77
2023/09/28 08:07:40;;;;;;;13.68;6.75;;;;;;;;;;5097926;28;20110;-76
2023/09/28 08:10:06;;;;;;;12.00;8.00;;;;;;;;;;5096965;28;20037;-76
2023/09/28 08:12:31;;;;;;;10.57;6.38;;;;;;;;;;5102783;28;20099;-76
2023/09/28 08:14:56;;;;;;;7.90;5.67;;;;;;;;;;5103433;28;20035;-77
2023/09/28 08:17:21;;;;;;;11.10;7.63;;;;;;;;;;5097880;28;20316;-75
2023/09/28 08:19:46;;;;;;;14.60;8.35;;;;;;;;;;5100369;28;20511;-76
2023/09/28 08:22:12;;;;;;;13.17;9.00;;;;;;;;;;5096655;28;20020;-76
2023/09/28 08:24:37;;;;;;;9.53;5.30;;;;;;;;;;5101573;28;20274;-76
2023/09/28 08:27:04;;;;;;;11.55;7.50;;;;;;;;;;5102450;28;20286;-77
2023/09/28 08:29:29;;;;;;;13.27;5.25;;;;;;;;;;5105022;28;20032;-76
2023/09/28 08:31:54;;;;;;;11.20;6.68;;;;;;;;;;5097664;28;20042;-76
2023/09/28 08:34:20;;;;;;;9.02;5.80;;;;;;;;;;5101258;28;20059;-76
2023/09/28 08:36:45;;;;;;;12.75;9.48;;;;;;;;;;5100339;28;20032;-76
2023/09/28 08:39:10;;;;;;;13.73;7.50;;;;;;;;;;5103555;28;20019;-77
2023/09/28 08:41:38;;;;;;;14.80;6.57;;;;;;;;;;5098720;28;20517;-77
2023/09/28 08:44:04;;;;;;;11.68;8.10;;;;;;;;;;5096333;28;20287;-77
2023/09/28 08:46:31;;;;;;;12.38;10.15;;;;;;;;;;5078133;28;20035;-76
2023/09/28 08:48:58;;;;;;;13.00;6.13;;;;;;;;;;5096516;28;20496;-76
2023/09/28 08:51:25;;;;;;;11.18;7.10;;;;;;;;;;5103720;28;20669;-76
2023/09/28 08:53:52;;;;;;;11.95;5.43;;;;;;;;;;5101439;28;20400;-77
2023/09/28 08:56:18;;;;;;;11.10;7.57;;;;;;;;;;5105964;28;20505;-76
2023/09/28 08:58:44;;;;;;;9.43;7.28;;;;;;;;;;5101798;28;20059;-76
2023/09/28 09:01:09;;;;;;;10.00;5.65;;;;;;;;;;5101923;28;20024;-76
2023/09/28 09:03:34;;;;;;;13.50;9.25;;;;;;;;;;5105422;28;20518;-76
2023/09/28 09:06:02;;;;;;;11.23;7.97;;;;;;;;;;5104957;28;20055;-76
2023/09/28 09:08:29;;;;;;;8.35;5.40;;;;;;;;;;5105282;28;20548;-76
2023/09/28 09:10:54;;;;;;;10.57;8.32;;;;;;;;;;5101162;28;20032;-76
2023/09/28 09:13:20;;;;;;;10.07;6.80;;;;;;;;;;5102435;28;20093;-76
2023/09/28 09:15:45;;;;;;;12.23;7.65;;;;;;;;;;5103764;28;20041;-76
2023/09/28 09:18:19;;;;;;;8.45;6.35;;;;;;;;;;5105476;28;20063;-76
2023/09/28 09:20:47;;;;;;;10.13;5.95;;;;;;;;;;5100841;28;20118;-76
2023/09/28 09:23:13;;;;;;;11.60;6.85;;;;;;;;;;5101069;28;20036;-76
2023/09/28 09:25:42;;;;;;;8.07;5.40;;;;;;;;;;5102914;28;20114;-76
2023/09/28 09:28:07;;;;;;;7.78;6.00;;;;;;;;;;5105435;28;20380;-77
2023/09/28 09:30:35;;;;;;;13.18;6.65;;;;;;;;;;5086598;28;20101;-77
2023/09/28 09:33:00;;;;;;;7.43;5.85;;;;;;;;;;5103077;28;20032;-77
2023/09/28 09:35:27;;;;;;;12.73;6.20;;;;;;;;;;5084155;28;20493;-77
2023/09/28 09:37:53;;;;;;;9.40;6.65;;;;;;;;;;5102582;28;20270;-77
2023/09/28 09:40:18;;;;;;;8.10;5.68;;;;;;;;;;5103536;28;20130;-77
2023/09/28 09:42:43;;;;;;;11.95;7.60;;;;;;;;;;5083564;28;20383;-77
2023/09/28 09:45:11;;;;;;;8.20;7.03;;;;;;;;;;5103356;28;20039;-77
2023/09/28 09:47:36;;;;;;;15.10;9.73;;;;;;;;;;5101196;28;20115;-77
2023/09/28 09:50:02;;;;;;;9.73;6.32;;;;;;;;;;5099922;28;20639;-77
2023/09/28 09:52:28;;;;;;;9.13;5.50;;;;;;;;;;5101854;28;20042;-77
2023/09/28 09:54:53;;;;;;;6.05;4.82;;;;;;;;;;5082955;28;20036;-77
2023/09/28 09:57:19;;;;;;;8.80;6.40;;;;;;;;;;5093194;28;20061;-77
2023/09/28 09:59:48;;;;;;;14.23;9.25;;;;;;;;;;5100365;28;20340;-77
2023/09/28 10:02:20;;;;;;;14.35;11.43;;;;;;;;;;5098768;28;20012;-77
2023/09/28 10:04:46;;;;;;;10.77;8.05;;;;;;;;;;5097087;28;20042;-77
2023/09/28 10:07:12;;;;;;;6.63;5.05;;;;;;;;;;5101500;28;20123;-77
2023/09/28 10:09:39;;;;;;;11.20;6.35;;;;;;;;;;5103949;28;20507;-77
2023/09/28 10:12:04;;;;;;;14.55;6.13;;;;;;;;;;5102105;28;20063;-77
2023/09/28 10:14:29;;;;;;;10.15;6.18;;;;;;;;;;5103781;28;20055;-77
2023/09/28 10:16:54;;;;;;;9.70;6.23;;;;;;;;;;5101163;28;20021;-78
2023/09/28 10:19:24;;;;;;;6.60;4.65;;;;;;;;;;5101052;28;20028;-77
2023/09/28 10:21:51;;;;;;;8.32;4.97;;;;;;;;;;5100036;28;20032;-77
2023/09/28 10:24:17;;;;;;;12.13;8.55;;;;;;;;;;5084947;28;20403;-77
2023/09/28 10:26:52;;;;;;;15.60;12.90;;;;;;;;;;5101911;28;20038;-77
2023/09/28 10:29:28;;;;;;;10.45;7.38;;;;;;;;;;5105061;28;20062;-77
2023/09/28 10:31:54;;;;;;;9.93;5.18;;;;;;;;;;5071557;28;20033;-77
2023/09/28 10:34:20;;;;;;;10.07;5.75;;;;;;;;;;5103064;28;20118;-77
2023/09/28 10:37:10;;;;;;;9.70;5.85;;;;;;;;;;5096670;28;20078;-77
2023/09/28 10:39:36;;;;;;;9.25;5.65;;;;;;;;;;5095286;28;20031;-77
2023/09/28 10:42:11;;;;;;;9.65;7.70;;;;;;;;;;5099215;28;20036;-77
2023/09/28 10:44:44;;;;;;;12.80;6.25;;;;;;;;;;5101988;28;20091;-77
2023/09/28 10:47:11;;;;;;;9.10;6.78;;;;;;;;;;5104584;28;20032;-77
2023/09/28 10:49:36;;;;;;;7.22;4.85;;;;;;;;;;5096800;28;20043;-77
2023/09/28 10:52:01;;;;;;;11.15;4.38;;;;;;;;;;5100166;28;20031;-77
2023/09/28 10:54:27;;;;;;;8.37;5.57;;;;;;;;;;5104144;28;20173;-77
2023/09/28 10:56:52;;;;;;;6.50;4.60;;;;;;;;;;5094643;28;20387;-77
2023/09/28 10:59:18;;;;;;;6.70;4.20;;;;;;;;;;5104300;28;20472;-77
2023/09/28 11:01:47;;;;;;;8.68;4.20;;;;;;;;;;5099893;28;20064;-77
2023/09/28 11:04:13;;;;;;;8.15;4.38;;;;;;;;;;5100168;28;20085;-77
2023/09/28 11:06:39;;;;;;;13.98;5.72;;;;;;;;;;5097209;28;20039;-77
2023/09/28 11:09:05;;;;;;;8.63;5.38;;;;;;;;;;5101183;28;20023;-77
2023/09/28 11:11:30;;;;;;;7.35;5.38;;;;;;;;;;5100709;28;20115;-77
2023/09/28 11:13:57;;;;;;;12.13;7.55;;;;;;;;;;5101572;28;20127;-77
2023/09/28 11:16:22;;;;;;;5.90;3.95;;;;;;;;;;5083815;28;20060;-77
2023/09/28 11:18:49;;;;;;;9.67;5.00;;;;;;;;;;5096839;28;20022;-77
2023/09/28 11:21:14;;;;;;;6.35;4.03;;;;;;;;;;5099851;28;20111;-77
2023/09/28 11:23:40;;;;;;;6.70;4.37;;;;;;;;;;5099555;28;20135;-77
2023/09/28 11:26:08;;;;;;;7.03;5.20;;;;;;;;;;5097545;28;20278;-77
2023/09/28 11:28:33;;;;;;;7.20;4.00;;;;;;;;;;5102123;28;20084;-77
2023/09/28 11:31:02;;;;;;;6.10;3.58;;;;;;;;;;5099261;28;20503;-77
2023/09/28 11:33:28;;;;;;;5.85;3.85;;;;;;;;;;5102966;28;20036;-77
2023/09/28 11:35:53;;;;;;;7.13;3.97;;;;;;;;;;5075641;28;20028;-77
2023/09/28 11:38:19;;;;;;;7.90;4.90;;;;;;;;;;5097201;28;20037;-77
2023/09/28 11:40:44;;;;;;;7.35;4.18;;;;;;;;;;5100169;28;20028;-77
2023/09/28 11:43:11;;;;;;;7.55;4.20;;;;;;;;;;5104537;28;20028;-78
2023/09/28 11:45:36;;;;;;;12.70;7.47;;;;;;;;;;5077891;28;20054;-78
2023/09/28 11:48:10;;;;;;;7.97;5.07;;;;;;;;;;5096248;28;20024;-77
2023/09/28 11:50:35;;;;;;;12.80;4.35;;;;;;;;;;5094358;28;20391;-78
2023/09/28 11:53:00;;;;;;;10.88;5.88;;;;;;;;;;5101324;28;20039;-78
2023/09/28 11:55:26;;;;;;;10.27;5.73;;;;;;;;;;5102485;28;20039;-78
2023/09/28 11:57:57;;;;;;;9.57;5.38;;;;;;;;;;5100219;28;20266;-76
2023/09/28 12:00:24;;;;;;;8.68;5.60;;;;;;;;;;5092925;28;20056;-76
2023/09/28 12:02:50;;;;;;;6.35;4.20;;;;;;;;;;5095536;28;20112;-76
2023/09/28 12:05:17;;;;;;;6.10;3.78;;;;;;;;;;5101521;28;20036;-76
2023/09/28 12:07:42;;;;;;;6.72;6.03;;;;;;;;;;5099558;28;20550;-76
2023/09/28 12:10:17;;;;;;;7.22;4.65;;;;;;;;;;5101405;28;20032;-76
2023/09/28 12:12:43;;;;;;;10.88;5.70;;;;;;;;;;5096111;28;20036;-76
2023/09/28 12:15:11;;;;;;;11.15;8.10;;;;;;;;;;5094532;28;20039;-76
2023/09/28 12:17:40;;;;;;;8.35;5.28;;;;;;;;;;5104224;28;20038;-76
2023/09/28 12:20:14;;;;;;;7.18;4.40;;;;;;;;;;5104401;28;20480;-77
2023/09/28 12:22:40;;;;;;;7.47;3.30;;;;;;;;;;5102589;28;20078;-77
2023/09/28 12:25:05;;;;;;;11.13;3.67;;;;;;;;;;5106244;28;20437;-76
2023/09/28 12:27:34;;;;;;;6.97;3.75;;;;;;;;;;5095823;28;20110;-76
2023/09/28 12:29:59;;;;;;;5.68;3.67;;;;;;;;;;5105058;28;20036;-77
2023/09/28 12:32:25;;;;;;;7.57;4.85;;;;;;;;;;5104181;28;20042;-77
2023/09/28 12:34:50;;;;;;;10.48;7.80;;;;;;;;;;5100789;28;20040;-77
2023/09/28 12:37:16;;;;;;;6.33;3.40;;;;;;;;;;5106275;28;20044;-77
2023/09/28 12:39:42;;;;;;;6.63;4.78;;;;;;;;;;5102894;28;20273;-77
2023/09/28 12:42:07;;;;;;;7.35;5.38;;;;;;;;;;5084742;28;20081;-76
2023/09/28 12:44:33;;;;;;;8.97;5.50;;;;;;;;;;5106457;28;20403;-77
2023/09/28 12:46:59;;;;;;;14.35;6.32;;;;;;;;;;5102214;28;20758;-77
2023/09/28 12:49:24;;;;;;;8.47;5.30;;;;;;;;;;5101833;28;20042;-77
2023/09/28 12:51:49;;;;;;;7.47;3.70;;;;;;;;;;5101723;28;20114;-76
2023/09/28 12:54:15;;;;;;;9.80;4.82;;;;;;;;;;5102565;28;20024;-77
2023/09/28 12:56:41;;;;;;;8.30;3.35;;;;;;;;;;5087067;28;20032;-76
2023/09/28 12:59:06;;;;;;;6.30;3.63;;;;;;;;;;5105220;28;20098;-77
2023/09/28 13:01:31;;;;;;;6.73;3.47;;;;;;;;;;5101198;28;20269;-76
2023/09/28 13:03:59;;;;;;;5.37;3.47;;;;;;;;;;5102954;28;20032;-76
2023/09/28 13:06:24;;;;;;;5.72;3.95;;;;;;;;;;5085083;28;20074;-77
2023/09/28 13:08:50;;;;;;;5.07;4.17;;;;;;;;;;5093641;28;20031;-77
2023/09/28 13:11:15;;;;;;;8.68;5.00;;;;;;;;;;5097054;28;20266;-77
2023/09/28 13:13:40;;;;;;;6.00;3.70;;;;;;;;;;5100976;28;20036;-76
2023/09/28 13:16:05;;;;;;;7.53;3.85;;;;;;;;;;5096146;28;20031;-77
2023/09/28 13:18:31;;;;;;;7.93;3.83;;;;;;;;;;5102774;28;20032;-77
2023/09/28 13:20:56;;;;;;;7.10;4.80;;;;;;;;;;5101429;28;20036;-76
2023/09/28 13:23:21;;;;;;;8.57;4.27;;;;;;;;;;5104126;28;20031;-76
2023/09/28 13:25:46;;;;;;;6.10;3.22;;;;;;;;;;5101354;28;20071;-77
2023/09/28 13:28:12;;;;;;;5.60;2.73;;;;;;;;;;5100160;28;20020;-77
2023/09/28 13:30:40;;;;;;;7.00;3.30;;;;;;;;;;5103822;28;20542;-77
2023/09/28 13:33:06;;;;;;;7.72;3.17;;;;;;;;;;5103437;28;20484;-77
2023/09/28 13:35:33;;;;;;;6.30;3.63;;;;;;;;;;5081376;28;20042;-77
2023/09/28 13:37:58;;;;;;;8.95;4.07;;;;;;;;;;5074972;28;20511;-77
2023/09/28 13:40:32;;;;;;;7.30;3.60;;;;;;;;;;5082629;28;20036;-77
2023/09/28 13:42:59;;;;;;;8.60;4.03;;;;;;;;;;5080990;28;20075;-76
2023/09/28 13:45:24;;;;;;;6.38;3.97;;;;;;;;;;5099101;28;20044;-76
2023/09/28 13:47:50;;;;;;;5.97;2.83;;;;;;;;;;5102328;28;20032;-77
2023/09/28 13:50:16;;;;;;;10.50;3.38;;;;;;;;;;5100959;28;20278;-76
2023/09/28 13:52:41;;;;;;;8.85;3.28;;;;;;;;;;5098265;28;20429;-76
2023/09/28 13:55:08;;;;;;;5.82;2.67;;;;;;;;;;5069954;28;20127;-76
2023/09/28 13:57:33;;;;;;;4.45;2.80;;;;;;;;;;5100741;28;20487;-76
2023/09/28 14:00:00;;;;;;;9.45;2.67;;;;;;;;;;5083808;28;20035;-77
2023/09/28 14:02:26;;;;;;;6.88;3.00;;;;;;;;;;5098934;28;20020;-76
2023/09/28 14:04:51;;;;;;;5.63;2.70;;;;;;;;;;5093688;28;20400;-76
2023/09/28 14:07:17;;;;;;;6.13;2.85;;;;;;;;;;5094450;28;20027;-76
2023/09/28 14:09:42;;;;;;;6.70;3.00;;;;;;;;;;5097303;28;20158;-76
2023/09/28 14:12:11;;;;;;;6.47;3.10;;;;;;;;;;5098575;28;20104;-76
2023/09/28 14:14:37;;;;;;;7.22;2.70;;;;;;;;;;5100946;28;20526;-76
2023/09/28 14:17:04;;;;;;;7.47;2.60;;;;;;;;;;5096368;28;20036;-76
2023/09/28 14:19:29;;;;;;;6.65;3.35;;;;;;;;;;5092952;28;20032;-76
2023/09/28 14:21:54;;;;;;;6.70;2.90;;;;;;;;;;5097981;28;20365;-77
2023/09/28 14:24:19;;;;;;;6.50;2.73;;;;;;;;;;5077750;28;20495;-76
2023/09/28 14:26:44;;;;;;;6.30;2.73;;;;;;;;;;5099684;28;20296;-76